Time;durP1;ratioP1;P1;durP2;ratioP2;P2;SDS_P1;SDS_P2;PMS_P1;PMS_P2;Temp;Humidity;BMP_temperature;BMP_pressure;BME280_temperature;BME280_humidity;BME280_pressure;Samples;Min_cycle;Max_cycle;Signal;HPM_P1;HPM_P2
2022/11/02 00:01:36;;;;;;;37.97;17.52;;;;;;;;;;4937049;29;20024;-40
2022/11/02 00:04:02;;;;;;;50.83;17.63;;;;;;;;;;4937110;29;20040;-40
2022/11/02 00:06:27;;;;;;;39.65;15.18;;;;;;;;;;4935715;29;20036;-40
2022/11/02 00:08:52;;;;;;;51.03;14.60;;;;;;;;;;4937090;29;20023;-39
2022/11/02 00:11:18;;;;;;;42.63;15.55;;;;;;;;;;4937140;29;20089;-40
2022/11/02 00:13:43;;;;;;;49.42;18.60;;;;;;;;;;4936844;29;20039;-39
2022/11/02 00:16:10;;;;;;;35.03;15.40;;;;;;;;;;4936982;29;20091;-40
2022/11/02 00:18:35;;;;;;;50.22;18.95;;;;;;;;;;4936862;29;20027;-40
2022/11/02 00:21:01;;;;;;;44.40;17.02;;;;;;;;;;4937038;29;20510;-39
2022/11/02 00:23:27;;;;;;;44.30;18.55;;;;;;;;;;4936692;29;20044;-39
2022/11/02 00:25:54;;;;;;;47.30;18.00;;;;;;;;;;4937119;29;20035;-40
2022/11/02 00:28:19;;;;;;;48.10;17.05;;;;;;;;;;4936627;29;20054;-40
2022/11/02 00:30:45;;;;;;;38.60;15.13;;;;;;;;;;4936923;29;20019;-40
2022/11/02 00:33:10;;;;;;;42.92;15.38;;;;;;;;;;4935402;29;20402;-40
2022/11/02 00:35:36;;;;;;;39.25;17.80;;;;;;;;;;4936352;29;20052;-39
2022/11/02 00:38:02;;;;;;;42.83;17.45;;;;;;;;;;4935328;29;20390;-40
2022/11/02 00:40:28;;;;;;;38.25;15.93;;;;;;;;;;4935171;29;20047;-41
2022/11/02 00:42:53;;;;;;;44.70;18.40;;;;;;;;;;4951102;29;20044;-39
2022/11/02 00:45:18;;;;;;;37.83;15.85;;;;;;;;;;4935869;29;20024;-40
2022/11/02 00:47:45;;;;;;;40.45;15.52;;;;;;;;;;4936441;29;20090;-40
2022/11/02 00:50:10;;;;;;;43.63;16.65;;;;;;;;;;4936571;29;20016;-39
2022/11/02 00:52:39;;;;;;;37.22;14.73;;;;;;;;;;4936247;29;20031;-40
2022/11/02 00:55:05;;;;;;;39.55;15.82;;;;;;;;;;4935034;29;20019;-39
2022/11/02 00:57:31;;;;;;;31.45;14.77;;;;;;;;;;4934785;29;20039;-40
2022/11/02 00:59:57;;;;;;;42.45;16.15;;;;;;;;;;4934888;29;20479;-40
2022/11/02 01:02:22;;;;;;;34.42;15.40;;;;;;;;;;4936116;29;20047;-39
2022/11/02 01:04:48;;;;;;;38.22;13.85;;;;;;;;;;4934641;29;20035;-40
2022/11/02 01:07:13;;;;;;;38.33;15.40;;;;;;;;;;4951084;29;20474;-40
2022/11/02 01:09:39;;;;;;;31.67;14.85;;;;;;;;;;4934654;29;20032;-40
2022/11/02 01:12:04;;;;;;;33.05;14.50;;;;;;;;;;4935951;29;20083;-39
2022/11/02 01:14:30;;;;;;;34.10;13.82;;;;;;;;;;4935846;29;20024;-40
2022/11/02 01:16:56;;;;;;;31.77;14.75;;;;;;;;;;4934474;29;20095;-40
2022/11/02 01:19:23;;;;;;;31.65;14.38;;;;;;;;;;4934417;29;20406;-40
2022/11/02 01:21:48;;;;;;;42.55;14.88;;;;;;;;;;4950499;29;20039;-40
2022/11/02 01:24:13;;;;;;;29.85;13.70;;;;;;;;;;4935642;29;20031;-39
2022/11/02 01:26:39;;;;;;;37.88;13.55;;;;;;;;;;4935951;29;20032;-39
2022/11/02 01:29:04;;;;;;;38.22;14.40;;;;;;;;;;4935925;29;20024;-39
2022/11/02 01:31:30;;;;;;;32.10;14.20;;;;;;;;;;4950062;29;20023;-40
2022/11/02 01:33:55;;;;;;;33.65;15.90;;;;;;;;;;4935796;29;20019;-40
2022/11/02 01:36:20;;;;;;;41.40;15.95;;;;;;;;;;4934126;29;20384;-40
2022/11/02 01:38:46;;;;;;;34.65;14.13;;;;;;;;;;4935577;29;20040;-39
2022/11/02 01:41:14;;;;;;;39.38;15.65;;;;;;;;;;4934130;29;20118;-40
2022/11/02 01:43:40;;;;;;;33.35;14.10;;;;;;;;;;4935196;29;20119;-39
2022/11/02 01:46:12;;;;;;;37.05;13.55;;;;;;;;;;4934028;29;20036;-39
2022/11/02 01:48:44;;;;;;;25.92;11.20;;;;;;;;;;4935260;29;20066;-41
2022/11/02 01:51:11;;;;;;;34.35;15.05;;;;;;;;;;4935521;29;20414;-40
2022/11/02 01:53:38;;;;;;;32.92;14.85;;;;;;;;;;4935030;29;20051;-39
2022/11/02 01:56:04;;;;;;;41.10;14.52;;;;;;;;;;4934263;29;20036;-39
2022/11/02 01:58:33;;;;;;;36.78;15.38;;;;;;;;;;4934976;29;20023;-40
2022/11/02 02:00:59;;;;;;;33.78;13.35;;;;;;;;;;4933735;29;20138;-40
2022/11/02 02:03:24;;;;;;;43.00;14.70;;;;;;;;;;4933639;29;20127;-40
2022/11/02 02:05:53;;;;;;;40.67;13.98;;;;;;;;;;4933607;29;20042;-40
2022/11/02 02:08:20;;;;;;;33.80;14.38;;;;;;;;;;4933609;29;20131;-39
2022/11/02 02:10:46;;;;;;;40.20;16.13;;;;;;;;;;4933527;29;20526;-40
2022/11/02 02:13:11;;;;;;;26.45;13.63;;;;;;;;;;4934824;29;20063;-40
2022/11/02 02:15:43;;;;;;;36.28;15.15;;;;;;;;;;4933303;29;20028;-40
2022/11/02 02:18:26;;;;;;;34.60;13.45;;;;;;;;;;4934819;29;20032;-40
2022/11/02 02:21:04;;;;;;;33.63;15.40;;;;;;;;;;4949384;29;20091;-39
2022/11/02 02:23:38;;;;;;;37.10;13.27;;;;;;;;;;4933269;29;20148;-41
2022/11/02 02:26:22;;;;;;;39.85;14.77;;;;;;;;;;4934826;29;20028;-40
2022/11/02 02:28:57;;;;;;;29.25;13.40;;;;;;;;;;4934434;29;20032;-40
2022/11/02 02:31:35;;;;;;;32.10;15.02;;;;;;;;;;4933282;29;20479;-40
2022/11/02 02:34:03;;;;;;;33.03;15.43;;;;;;;;;;4933252;29;20039;-39
2022/11/02 02:36:29;;;;;;;38.97;14.13;;;;;;;;;;4932830;29;20055;-40
2022/11/02 02:39:01;;;;;;;39.25;14.57;;;;;;;;;;4934558;29;20083;-40
2022/11/02 02:41:38;;;;;;;34.55;14.15;;;;;;;;;;4934436;29;20042;-40
2022/11/02 02:44:05;;;;;;;43.60;14.00;;;;;;;;;;4948835;29;20533;-40
2022/11/02 02:46:42;;;;;;;35.17;14.43;;;;;;;;;;4934404;29;20078;-39
2022/11/02 02:49:10;;;;;;;37.05;17.52;;;;;;;;;;4933104;29;20114;-40
2022/11/02 02:51:36;;;;;;;37.40;16.55;;;;;;;;;;4932909;29;20031;-40
2022/11/02 02:54:02;;;;;;;44.00;16.50;;;;;;;;;;4934789;29;20047;-39
2022/11/02 02:56:30;;;;;;;35.28;16.98;;;;;;;;;;4932915;29;20034;-40
2022/11/02 02:58:56;;;;;;;44.25;16.45;;;;;;;;;;4948915;29;20115;-40
2022/11/02 03:01:22;;;;;;;42.75;17.73;;;;;;;;;;4934147;29;20119;-40
2022/11/02 03:03:47;;;;;;;45.88;17.60;;;;;;;;;;4932643;29;20771;-40
2022/11/02 03:06:21;;;;;;;48.50;17.73;;;;;;;;;;4932882;29;20042;-40
2022/11/02 03:08:56;;;;;;;40.30;14.57;;;;;;;;;;4934590;29;20094;-40
2022/11/02 03:11:22;;;;;;;33.15;14.48;;;;;;;;;;4939145;29;20027;-40
2022/11/02 03:14:06;;;;;;;35.38;16.23;;;;;;;;;;4940559;29;20358;-40
2022/11/02 03:16:33;;;;;;;43.88;16.08;;;;;;;;;;4955074;29;20090;-40
2022/11/02 03:19:02;;;;;;;36.15;17.90;;;;;;;;;;4940404;29;20378;-40
2022/11/02 03:21:28;;;;;;;48.25;18.23;;;;;;;;;;4939146;29;20387;-40
2022/11/02 03:23:59;;;;;;;36.78;16.92;;;;;;;;;;4940250;29;20031;-40
2022/11/02 03:26:35;;;;;;;36.42;17.15;;;;;;;;;;4955055;29;20031;-39
2022/11/02 03:29:03;;;;;;;40.45;16.98;;;;;;;;;;4939088;29;20046;-40
2022/11/02 03:31:55;;;;;;;45.40;17.92;;;;;;;;;;4939040;29;20087;-40
2022/11/02 03:34:24;;;;;;;37.92;13.75;;;;;;;;;;4935344;29;20410;-40
2022/11/02 03:36:55;;;;;;;42.08;13.60;;;;;;;;;;4938834;29;20075;-40
2022/11/02 03:39:23;;;;;;;36.60;16.90;;;;;;;;;;4940441;29;20378;-40
2022/11/02 03:41:51;;;;;;;49.30;19.17;;;;;;;;;;4938921;29;20075;-40
2022/11/02 03:44:20;;;;;;;42.97;15.48;;;;;;;;;;4940079;29;20044;-40
2022/11/02 03:46:47;;;;;;;39.60;16.50;;;;;;;;;;4938819;29;20030;-40
2022/11/02 03:49:16;;;;;;;38.30;16.30;;;;;;;;;;4938854;29;20482;-40
2022/11/02 03:51:43;;;;;;;39.10;17.80;;;;;;;;;;4938754;29;20028;-40
2022/11/02 03:54:16;;;;;;;30.60;14.63;;;;;;;;;;4938743;29;20032;-39
2022/11/02 03:56:43;;;;;;;36.53;15.05;;;;;;;;;;4939985;29;20423;-40
2022/11/02 03:59:09;;;;;;;37.35;16.00;;;;;;;;;;4938782;29;20023;-40
2022/11/02 04:01:37;;;;;;;31.75;13.90;;;;;;;;;;4938643;29;20031;-40
2022/11/02 04:04:03;;;;;;;39.85;16.38;;;;;;;;;;4938633;29;20138;-40
2022/11/02 04:06:29;;;;;;;37.60;15.20;;;;;;;;;;4938796;29;20476;-40
2022/11/02 04:08:55;;;;;;;46.53;15.70;;;;;;;;;;4938592;29;20024;-40
2022/11/02 04:19:26;;;;;;;44.38;17.15;;;;;;;;;;4938518;29;20027;-40
2022/11/02 04:19:43;;;;;;;33.15;14.73;;;;;;;;;;4939518;29;20040;-40
2022/11/02 04:25:17;;;;;;;37.88;14.00;;;;;;;;;;4936831;29;20517;-40
2022/11/02 04:28:07;;;;;;;35.00;13.57;;;;;;;;;;4937172;29;20560;-39
2022/11/02 04:30:37;;;;;;;33.65;14.38;;;;;;;;;;4951317;29;20603;-40
2022/11/02 04:35:52;;;;;;;31.13;14.05;;;;;;;;;;4935143;29;20521;-39
2022/11/02 04:43:50;;;;;;;34.72;15.30;;;;;;;;;;4936308;29;20043;-40
2022/11/02 04:46:18;;;;;;;40.25;16.13;;;;;;;;;;4935193;29;20019;-39
2022/11/02 04:48:44;;;;;;;45.33;16.85;;;;;;;;;;4951043;29;20035;-39
2022/11/02 04:51:09;;;;;;;28.95;14.70;;;;;;;;;;4936342;29;20026;-39
2022/11/02 04:53:36;;;;;;;41.15;15.85;;;;;;;;;;4936160;29;20467;-39
2022/11/02 04:56:02;;;;;;;36.67;16.25;;;;;;;;;;4936611;29;20066;-40
2022/11/02 04:58:28;;;;;;;44.55;16.58;;;;;;;;;;4950877;29;20648;-39
2022/11/02 05:00:53;;;;;;;33.38;14.38;;;;;;;;;;4934832;29;20118;-39
2022/11/02 05:03:19;;;;;;;34.97;15.52;;;;;;;;;;4934755;29;20094;-40
2022/11/02 05:05:44;;;;;;;37.28;13.82;;;;;;;;;;4934707;29;20541;-40
2022/11/02 05:08:10;;;;;;;36.90;15.80;;;;;;;;;;4934803;29;20039;-40
2022/11/02 05:10:36;;;;;;;37.30;15.20;;;;;;;;;;4934713;29;20027;-41
2022/11/02 05:13:01;;;;;;;36.30;16.05;;;;;;;;;;4934587;29;20039;-40
2022/11/02 05:15:31;;;;;;;30.60;15.48;;;;;;;;;;4934669;29;20023;-40
2022/11/02 05:17:58;;;;;;;44.92;16.58;;;;;;;;;;4950617;29;20046;-40
2022/11/02 05:20:26;;;;;;;37.83;14.80;;;;;;;;;;4935813;29;20024;-39
2022/11/02 05:22:52;;;;;;;35.15;14.38;;;;;;;;;;4934406;29;20036;-40
2022/11/02 05:25:19;;;;;;;48.47;16.15;;;;;;;;;;4934534;29;20534;-40
2022/11/02 05:27:44;;;;;;;36.22;16.02;;;;;;;;;;4950355;29;20027;-40
2022/11/02 05:30:11;;;;;;;42.20;16.10;;;;;;;;;;4934360;29;20035;-39
2022/11/02 05:32:37;;;;;;;37.83;14.65;;;;;;;;;;4933956;29;20083;-40
2022/11/02 05:35:02;;;;;;;40.28;15.63;;;;;;;;;;4934162;29;20074;-40
2022/11/02 05:37:28;;;;;;;32.17;15.60;;;;;;;;;;4934371;29;20122;-39
2022/11/02 05:39:55;;;;;;;38.63;14.13;;;;;;;;;;4934201;29;20039;-40
2022/11/02 05:42:22;;;;;;;44.88;17.05;;;;;;;;;;4933939;29;20039;-39
2022/11/02 05:44:48;;;;;;;39.58;15.43;;;;;;;;;;4934125;29;20438;-39
2022/11/02 05:47:14;;;;;;;42.38;16.23;;;;;;;;;;4949990;29;20118;-40
2022/11/02 05:49:41;;;;;;;42.17;15.00;;;;;;;;;;4935357;29;20369;-39
2022/11/02 05:52:06;;;;;;;55.05;19.30;;;;;;;;;;4935301;29;20035;-40
2022/11/02 05:54:32;;;;;;;40.17;14.95;;;;;;;;;;4935013;29;20041;-39
2022/11/02 05:56:57;;;;;;;53.63;17.67;;;;;;;;;;4935425;29;20079;-40
2022/11/02 05:59:22;;;;;;;33.92;14.60;;;;;;;;;;4935196;29;20544;-40
2022/11/02 06:01:48;;;;;;;40.25;15.80;;;;;;;;;;4935240;29;20060;-40
2022/11/02 06:04:14;;;;;;;43.00;16.40;;;;;;;;;;4934949;29;20031;-40
2022/11/02 06:06:39;;;;;;;37.72;14.25;;;;;;;;;;4934972;29;20119;-39
2022/11/02 06:09:05;;;;;;;39.42;15.98;;;;;;;;;;4935224;29;20047;-39
2022/11/02 06:11:30;;;;;;;37.10;14.38;;;;;;;;;;4935234;29;20034;-40
2022/11/02 06:13:56;;;;;;;33.95;14.85;;;;;;;;;;4934797;29;20034;-40
2022/11/02 06:16:22;;;;;;;33.25;13.57;;;;;;;;;;4934872;29;20082;-40
2022/11/02 06:18:47;;;;;;;35.28;14.25;;;;;;;;;;4935028;29;20020;-40
2022/11/02 06:21:13;;;;;;;40.17;13.20;;;;;;;;;;4934781;29;20116;-40
2022/11/02 06:23:39;;;;;;;31.80;13.93;;;;;;;;;;4934460;29;20122;-40
2022/11/02 06:26:05;;;;;;;36.85;15.43;;;;;;;;;;4934629;29;20111;-40
2022/11/02 06:28:30;;;;;;;34.95;15.30;;;;;;;;;;4934554;29;20063;-39
2022/11/02 06:30:56;;;;;;;35.42;13.90;;;;;;;;;;4933271;29;20028;-39
2022/11/02 06:33:23;;;;;;;35.58;14.43;;;;;;;;;;4934476;29;20509;-39
2022/11/02 06:35:50;;;;;;;34.25;15.07;;;;;;;;;;4934370;29;20060;-39
2022/11/02 06:38:16;;;;;;;35.58;14.27;;;;;;;;;;4934406;29;20550;-39
2022/11/02 06:40:42;;;;;;;26.90;14.27;;;;;;;;;;4934671;29;20103;-39
2022/11/02 06:43:08;;;;;;;40.25;13.90;;;;;;;;;;4933868;29;20442;-40
2022/11/02 06:45:34;;;;;;;32.38;13.85;;;;;;;;;;4934211;29;20028;-40
2022/11/02 06:48:00;;;;;;;34.97;12.38;;;;;;;;;;4934651;29;20028;-39
2022/11/02 06:50:26;;;;;;;31.27;13.73;;;;;;;;;;4934273;29;20032;-39
2022/11/02 06:52:53;;;;;;;30.48;12.95;;;;;;;;;;4934410;29;20151;-39
2022/11/02 06:55:19;;;;;;;34.78;14.43;;;;;;;;;;4933061;29;20044;-39
2022/11/02 06:57:45;;;;;;;43.95;14.88;;;;;;;;;;4934162;29;20169;-40
2022/11/02 07:00:12;;;;;;;37.15;15.07;;;;;;;;;;4934240;29;20027;-39
2022/11/02 07:02:38;;;;;;;44.45;16.25;;;;;;;;;;4933981;29;20023;-40
2022/11/02 07:05:05;;;;;;;42.55;15.55;;;;;;;;;;4933848;29;20383;-39
2022/11/02 07:07:31;;;;;;;45.40;17.15;;;;;;;;;;4934092;29;20462;-39
2022/11/02 07:09:56;;;;;;;43.78;18.33;;;;;;;;;;4934079;29;20043;-40
2022/11/02 07:12:22;;;;;;;40.67;17.15;;;;;;;;;;4934162;29;20027;-39
2022/11/02 07:14:48;;;;;;;49.00;18.60;;;;;;;;;;4933997;29;20023;-39
2022/11/02 07:17:13;;;;;;;35.00;16.30;;;;;;;;;;4934133;29;20035;-39
2022/11/02 07:19:39;;;;;;;45.63;16.40;;;;;;;;;;4933964;29;20159;-40
2022/11/02 07:22:04;;;;;;;33.47;15.45;;;;;;;;;;4933975;29;20079;-40
2022/11/02 07:24:32;;;;;;;44.72;18.33;;;;;;;;;;4933984;29;20098;-40
2022/11/02 07:26:58;;;;;;;39.17;17.00;;;;;;;;;;4933970;29;20031;-40
2022/11/02 07:29:24;;;;;;;39.30;15.40;;;;;;;;;;4934159;29;20040;-40
2022/11/02 07:31:49;;;;;;;43.22;16.73;;;;;;;;;;4933903;29;20463;-39
2022/11/02 07:34:15;;;;;;;46.03;18.35;;;;;;;;;;4934118;29;20028;-40
2022/11/02 07:36:40;;;;;;;43.03;19.00;;;;;;;;;;4933701;29;20455;-40
2022/11/02 07:39:06;;;;;;;34.13;13.85;;;;;;;;;;4948607;29;20042;-39
2022/11/02 07:41:32;;;;;;;37.88;19.65;;;;;;;;;;4933905;29;20020;-39
2022/11/02 07:43:58;;;;;;;44.13;19.15;;;;;;;;;;4933699;29;20051;-40
2022/11/02 07:46:31;;;;;;;47.28;18.85;;;;;;;;;;4933912;29;20055;-39
2022/11/02 07:48:56;;;;;;;37.60;15.23;;;;;;;;;;4933686;29;20513;-40
2022/11/02 07:51:22;;;;;;;49.67;18.27;;;;;;;;;;4933814;29;20107;-39
2022/11/02 07:53:47;;;;;;;42.53;17.65;;;;;;;;;;4933903;29;20035;-40
2022/11/02 07:56:12;;;;;;;36.63;16.85;;;;;;;;;;4936488;29;20466;-39
2022/11/02 07:58:38;;;;;;;40.70;16.08;;;;;;;;;;4936018;29;20074;-40
2022/11/02 08:01:03;;;;;;;31.20;14.32;;;;;;;;;;4937656;29;20019;-39
2022/11/02 08:03:29;;;;;;;42.75;17.27;;;;;;;;;;4937108;29;20082;-39
2022/11/02 08:05:54;;;;;;;45.88;18.17;;;;;;;;;;4937405;29;20023;-39
2022/11/02 08:08:21;;;;;;;36.75;15.02;;;;;;;;;;4937489;29;20510;-40
2022/11/02 08:10:47;;;;;;;43.95;16.42;;;;;;;;;;4937148;29;20023;-39
2022/11/02 08:13:14;;;;;;;43.53;14.50;;;;;;;;;;4937024;29;20485;-40
2022/11/02 08:15:40;;;;;;;35.45;15.90;;;;;;;;;;4937013;29;20471;-39
2022/11/02 08:18:12;;;;;;;42.17;15.48;;;;;;;;;;4936886;29;20046;-40
2022/11/02 08:20:37;;;;;;;38.78;16.20;;;;;;;;;;4936895;29;20032;-40
2022/11/02 08:23:04;;;;;;;35.15;15.13;;;;;;;;;;4937053;29;20122;-40
2022/11/02 08:25:33;;;;;;;35.22;13.95;;;;;;;;;;4937095;29;20122;-40
2022/11/02 08:27:59;;;;;;;30.85;13.50;;;;;;;;;;4936760;29;20083;-39
2022/11/02 08:30:29;;;;;;;32.22;13.75;;;;;;;;;;4936666;29;20028;-40
2022/11/02 08:32:54;;;;;;;37.78;14.52;;;;;;;;;;4936588;29;20484;-40
2022/11/02 08:35:20;;;;;;;36.92;15.02;;;;;;;;;;4936694;29;20130;-41
2022/11/02 08:37:51;;;;;;;34.72;14.23;;;;;;;;;;4936665;29;20462;-40
2022/11/02 08:40:17;;;;;;;28.17;13.23;;;;;;;;;;4936816;29;20035;-40
2022/11/02 08:42:42;;;;;;;40.08;16.77;;;;;;;;;;4936634;29;20090;-40
2022/11/02 08:45:08;;;;;;;35.90;16.85;;;;;;;;;;4936499;29;20043;-40
2022/11/02 08:47:38;;;;;;;30.83;13.63;;;;;;;;;;4936587;29;20387;-40
2022/11/02 08:50:04;;;;;;;33.67;14.15;;;;;;;;;;4936476;29;20513;-39
2022/11/02 08:52:33;;;;;;;38.25;14.23;;;;;;;;;;4936250;29;20027;-40
2022/11/02 08:54:59;;;;;;;34.78;12.82;;;;;;;;;;4936374;29;20035;-40
2022/11/02 08:57:24;;;;;;;35.10;13.45;;;;;;;;;;4936539;29;20095;-44
2022/11/02 08:59:50;;;;;;;40.10;14.60;;;;;;;;;;4936143;29;20488;-40
2022/11/02 09:02:16;;;;;;;30.23;12.60;;;;;;;;;;4936196;29;20055;-40
2022/11/02 09:04:41;;;;;;;36.28;14.30;;;;;;;;;;4935944;29;20047;-40
2022/11/02 09:07:07;;;;;;;37.20;14.65;;;;;;;;;;4935453;29;20058;-39
2022/11/02 09:09:33;;;;;;;42.13;17.40;;;;;;;;;;4936348;29;20038;-40
2022/11/02 09:11:58;;;;;;;42.33;16.33;;;;;;;;;;4935932;29;20023;-40
2022/11/02 09:14:23;;;;;;;34.13;14.13;;;;;;;;;;4935953;29;20114;-39
2022/11/02 09:16:49;;;;;;;29.08;12.70;;;;;;;;;;4936160;29;20481;-40
2022/11/02 09:19:14;;;;;;;31.17;15.55;;;;;;;;;;4936154;29;20492;-40
2022/11/02 09:21:40;;;;;;;31.50;12.85;;;;;;;;;;4935838;29;20021;-39
2022/11/02 09:24:06;;;;;;;26.92;12.65;;;;;;;;;;4935711;29;20065;-40
2022/11/02 09:26:32;;;;;;;31.77;13.57;;;;;;;;;;4935821;29;20024;-39
2022/11/02 09:28:57;;;;;;;35.33;14.10;;;;;;;;;;4935628;29;20094;-40
2022/11/02 09:31:23;;;;;;;33.45;14.13;;;;;;;;;;4935659;29;20053;-39
2022/11/02 09:33:49;;;;;;;32.55;11.55;;;;;;;;;;4935598;29;20391;-40
2022/11/02 09:36:14;;;;;;;27.35;11.18;;;;;;;;;;4935557;29;20048;-42
2022/11/02 09:38:40;;;;;;;28.40;13.15;;;;;;;;;;4935763;29;20433;-40
2022/11/02 09:41:14;;;;;;;27.90;13.40;;;;;;;;;;4935547;29;20034;-40
2022/11/02 09:44:18;;;;;;;32.10;13.45;;;;;;;;;;4935160;29;20186;-40
2022/11/02 09:46:45;;;;;;;30.35;14.68;;;;;;;;;;4876418;29;20033;-40
2022/11/02 09:49:21;;;;;;;41.38;12.70;;;;;;;;;;4876508;29;20380;-40
2022/11/02 09:51:57;;;;;;;48.22;14.38;;;;;;;;;;4908208;29;20051;-40
2022/11/02 09:54:45;;;;;;;38.22;14.38;;;;;;;;;;4935305;29;20059;-40
2022/11/02 09:57:14;;;;;;;41.08;14.73;;;;;;;;;;4935400;29;20032;-40
2022/11/02 09:59:40;;;;;;;37.03;13.98;;;;;;;;;;4934989;29;20038;-40
2022/11/02 10:02:25;;;;;;;33.05;13.80;;;;;;;;;;4935209;29;20413;-40
2022/11/02 10:05:09;;;;;;;30.67;12.52;;;;;;;;;;4934860;29;20557;-40
2022/11/02 10:07:42;;;;;;;30.48;14.43;;;;;;;;;;4935111;29;20032;-40
2022/11/02 10:10:07;;;;;;;;;;;;;;;;;;4935377;29;20479;-40
2022/11/02 10:12:41;;;;;;;27.02;10.75;;;;;;;;;;4934828;29;19914;-40
2022/11/02 10:15:15;;;;;;;31.10;11.27;;;;;;;;;;4934941;29;20031;-40
2022/11/02 10:17:42;;;;;;;28.80;11.82;;;;;;;;;;4934861;29;20059;-40
2022/11/02 10:20:18;;;;;;;27.48;12.43;;;;;;;;;;4934066;29;20020;-40
2022/11/02 10:22:44;;;;;;;31.27;12.52;;;;;;;;;;4934861;29;20051;-40
2022/11/02 10:25:13;;;;;;;33.63;12.95;;;;;;;;;;4934735;29;20027;-40
2022/11/02 10:27:39;;;;;;;23.42;11.18;;;;;;;;;;4934647;29;20039;-41
2022/11/02 10:30:18;;;;;;;32.10;10.68;;;;;;;;;;4934878;29;20364;-40
2022/11/02 10:32:46;;;;;;;26.48;10.65;;;;;;;;;;4934399;29;20038;-40
2022/11/02 10:35:17;;;;;;;23.65;10.68;;;;;;;;;;4934551;29;20454;-41
2022/11/02 10:37:51;;;;;;;24.40;11.38;;;;;;;;;;4934777;29;20038;-40
2022/11/02 10:40:17;;;;;;;25.58;11.23;;;;;;;;;;4934400;29;20103;-40
2022/11/02 10:42:46;;;;;;;27.98;12.90;;;;;;;;;;4934332;29;20422;-40
2022/11/02 10:45:12;;;;;;;22.00;11.05;;;;;;;;;;4934485;29;20056;-40
2022/11/02 10:47:56;;;;;;;25.40;10.27;;;;;;;;;;4934506;29;20012;-40
2022/11/02 10:50:40;;;;;;;26.92;10.77;;;;;;;;;;4934378;29;20036;-40
2022/11/02 10:53:10;;;;;;;24.33;11.10;;;;;;;;;;4934377;29;20035;-40
2022/11/02 10:55:42;;;;;;;23.85;11.57;;;;;;;;;;4934299;29;20027;-40
2022/11/02 10:58:10;;;;;;;23.95;9.82;;;;;;;;;;4934292;29;20486;-40
2022/11/02 11:00:35;;;;;;;34.13;12.23;;;;;;;;;;4934469;29;20411;-40
2022/11/02 11:03:11;;;;;;;24.73;9.68;;;;;;;;;;4934027;29;20075;-40
2022/11/02 11:05:58;;;;;;;29.80;12.55;;;;;;;;;;4934370;29;20319;-40
2022/11/02 11:08:42;;;;;;;21.33;8.85;;;;;;;;;;4924277;29;20173;-40
2022/11/02 11:11:08;;;;;;;21.02;11.43;;;;;;;;;;4934164;29;20028;-40
2022/11/02 11:13:34;;;;;;;26.40;12.35;;;;;;;;;;4934066;29;20027;-41
2022/11/02 11:16:00;;;;;;;25.05;11.65;;;;;;;;;;4933994;29;20032;-40
2022/11/02 11:18:25;;;;;;;26.92;11.68;;;;;;;;;;4934027;29;20051;-40
2022/11/02 11:20:54;;;;;;;25.88;12.27;;;;;;;;;;4933998;29;20043;-40
2022/11/02 11:23:21;;;;;;;22.80;11.00;;;;;;;;;;4933809;29;20036;-40
2022/11/02 11:25:55;;;;;;;29.67;12.52;;;;;;;;;;4933947;29;20063;-40
2022/11/02 11:28:22;;;;;;;33.15;12.68;;;;;;;;;;4933931;29;20031;-40
2022/11/02 11:31:00;;;;;;;27.10;11.55;;;;;;;;;;4936345;29;20427;-40
2022/11/02 11:33:25;;;;;;;23.38;9.90;;;;;;;;;;4938075;29;20042;-40
2022/11/02 11:35:51;;;;;;;27.45;11.35;;;;;;;;;;4937500;29;20443;-40
2022/11/02 11:38:18;;;;;;;22.77;12.13;;;;;;;;;;4937699;29;20040;-40
2022/11/02 11:40:46;;;;;;;24.13;11.50;;;;;;;;;;4937619;29;20020;-40
2022/11/02 11:43:16;;;;;;;29.23;12.73;;;;;;;;;;4937526;29;20119;-40
2022/11/02 11:45:55;;;;;;;30.05;12.90;;;;;;;;;;4937754;29;20386;-40
2022/11/02 11:48:30;;;;;;;28.63;13.90;;;;;;;;;;4937558;29;20035;-40
2022/11/02 11:50:56;;;;;;;23.83;8.98;;;;;;;;;;4937665;29;20375;-40
2022/11/02 11:53:23;;;;;;;24.85;11.73;;;;;;;;;;4937679;29;20020;-40
2022/11/02 11:55:53;;;;;;;22.85;10.95;;;;;;;;;;4937291;29;20032;-40
2022/11/02 11:58:20;;;;;;;19.58;10.27;;;;;;;;;;4937419;29;20027;-39
2022/11/02 12:01:00;;;;;;;23.50;9.88;;;;;;;;;;4937223;29;20068;-40
2022/11/02 12:03:27;;;;;;;18.27;9.48;;;;;;;;;;4937475;29;20047;-40
2022/11/02 12:06:01;;;;;;;24.23;9.85;;;;;;;;;;4937392;29;20106;-40
2022/11/02 12:08:34;;;;;;;25.73;10.93;;;;;;;;;;4937523;29;20032;-40
2022/11/02 12:11:15;;;;;;;21.40;10.00;;;;;;;;;;4937118;29;20041;-39
2022/11/02 12:13:41;;;;;;;21.63;8.80;;;;;;;;;;4936901;29;20043;-40
2022/11/02 12:16:24;;;;;;;18.98;9.20;;;;;;;;;;4937081;29;20046;-39
2022/11/02 12:18:56;;;;;;;19.30;9.27;;;;;;;;;;4936889;29;20032;-40
2022/11/02 12:21:22;;;;;;;25.00;10.23;;;;;;;;;;4937227;29;20038;-40
2022/11/02 12:23:55;;;;;;;27.45;10.50;;;;;;;;;;4936746;29;20163;-40
2022/11/02 12:26:21;;;;;;;22.00;10.45;;;;;;;;;;4936882;29;20114;-40
2022/11/02 12:28:52;;;;;;;22.67;10.75;;;;;;;;;;4937048;29;20119;-40
2022/11/02 12:31:21;;;;;;;22.50;10.38;;;;;;;;;;4937045;29;20032;-40
2022/11/02 12:34:05;;;;;;;20.05;9.73;;;;;;;;;;4936582;29;20035;-40
2022/11/02 12:36:34;;;;;;;21.70;11.25;;;;;;;;;;4936404;29;20088;-40
2022/11/02 12:39:03;;;;;;;24.52;10.07;;;;;;;;;;4936612;29;20019;-40
2022/11/02 12:41:40;;;;;;;19.05;11.32;;;;;;;;;;4935418;29;20748;-39
2022/11/02 12:44:25;;;;;;;30.05;12.80;;;;;;;;;;4936560;29;20043;-40
2022/11/02 12:47:15;;;;;;;35.83;13.27;;;;;;;;;;4936716;29;20119;-41
2022/11/02 12:49:49;;;;;;;27.07;10.30;;;;;;;;;;4910401;29;20040;-40
2022/11/02 12:52:21;;;;;;;24.88;10.98;;;;;;;;;;4936463;29;20107;-39
2022/11/02 12:54:49;;;;;;;20.60;12.02;;;;;;;;;;4936298;29;20039;-39
2022/11/02 12:57:16;;;;;;;23.70;11.32;;;;;;;;;;4936410;29;20055;-39
2022/11/02 12:59:44;;;;;;;33.88;11.73;;;;;;;;;;4936189;29;20034;-40
2022/11/02 13:02:28;;;;;;;29.98;11.82;;;;;;;;;;4936148;29;20035;-40
2022/11/02 13:05:30;;;;;;;22.95;12.20;;;;;;;;;;4936089;29;20039;-40
2022/11/02 13:07:59;;;;;;;28.63;11.80;;;;;;;;;;4876927;29;20033;-40
2022/11/02 13:10:37;;;;;;;30.55;12.05;;;;;;;;;;4925339;29;20040;-41
2022/11/02 13:13:03;;;;;;;25.95;11.18;;;;;;;;;;4936012;29;20039;-40
2022/11/02 13:15:32;;;;;;;30.90;11.70;;;;;;;;;;4936060;29;20023;-40
2022/11/02 13:18:01;;;;;;;29.95;11.90;;;;;;;;;;4935893;29;20094;-40
2022/11/02 13:20:29;;;;;;;28.02;13.15;;;;;;;;;;4935925;29;20074;-39
2022/11/02 13:23:00;;;;;;;33.30;15.18;;;;;;;;;;4935583;29;20039;-41
2022/11/02 13:25:28;;;;;;;24.15;12.45;;;;;;;;;;4935799;29;20047;-40
2022/11/02 13:28:00;;;;;;;22.58;12.15;;;;;;;;;;4935761;29;20541;-40
2022/11/02 13:30:27;;;;;;;28.73;13.30;;;;;;;;;;4935900;29;20055;-39
2022/11/02 13:32:58;;;;;;;31.58;13.52;;;;;;;;;;4935825;29;20028;-40
2022/11/02 13:35:33;;;;;;;30.40;14.82;;;;;;;;;;4935649;29;20115;-39
2022/11/02 13:38:11;;;;;;;31.92;15.15;;;;;;;;;;4935555;29;20499;-40
2022/11/02 13:40:42;;;;;;;27.63;13.82;;;;;;;;;;4935530;29;20036;-40
2022/11/02 13:43:13;;;;;;;25.55;13.60;;;;;;;;;;4935402;29;20424;-41
2022/11/02 13:46:08;;;;;;;28.38;13.60;;;;;;;;;;4935237;29;20035;-40
2022/11/02 13:48:38;;;;;;;29.23;13.68;;;;;;;;;;4883382;29;20496;-40
2022/11/02 13:51:07;;;;;;;27.85;14.00;;;;;;;;;;4935362;29;20054;-40
2022/11/02 13:53:35;;;;;;;38.95;15.73;;;;;;;;;;4934986;29;20035;-40
2022/11/02 13:56:06;;;;;;;33.38;13.15;;;;;;;;;;4935498;29;20086;-40
2022/11/02 13:58:34;;;;;;;28.05;12.82;;;;;;;;;;4935100;29;20035;-40
2022/11/02 14:01:05;;;;;;;31.58;15.75;;;;;;;;;;4935322;29;20478;-40
2022/11/02 14:03:30;;;;;;;24.85;12.00;;;;;;;;;;4935238;29;20130;-40
2022/11/02 14:05:57;;;;;;;31.17;13.70;;;;;;;;;;4934995;29;20439;-40
2022/11/02 14:08:31;;;;;;;29.02;13.80;;;;;;;;;;4935080;29;20034;-39
2022/11/02 14:11:09;;;;;;;29.08;12.63;;;;;;;;;;4935221;29;20031;-40
2022/11/02 14:13:53;;;;;;;26.23;12.57;;;;;;;;;;4935122;29;20039;-40
2022/11/02 14:16:37;;;;;;;34.63;13.35;;;;;;;;;;4935195;29;20035;-40
2022/11/02 14:19:32;;;;;;;29.35;14.32;;;;;;;;;;4934770;29;20027;-41
2022/11/02 14:21:57;;;;;;;26.60;13.02;;;;;;;;;;4921975;29;20047;-40
2022/11/02 14:24:35;;;;;;;35.40;15.77;;;;;;;;;;4934886;29;20031;-40
2022/11/02 14:27:00;;;;;;;26.27;10.93;;;;;;;;;;4933436;29;20050;-40
2022/11/02 14:29:41;;;;;;;27.70;13.65;;;;;;;;;;4934881;29;20023;-40
2022/11/02 14:32:16;;;;;;;27.92;12.38;;;;;;;;;;4934612;29;20035;-39
2022/11/02 14:34:48;;;;;;;26.40;11.85;;;;;;;;;;4934811;29;20446;-40
2022/11/02 14:37:19;;;;;;;24.53;12.97;;;;;;;;;;4934643;29;20080;-40
2022/11/02 14:39:45;;;;;;;26.38;12.07;;;;;;;;;;4934442;29;20035;-40
2022/11/02 14:42:21;;;;;;;25.65;11.73;;;;;;;;;;4933219;29;20026;-40
2022/11/02 14:44:53;;;;;;;29.63;12.95;;;;;;;;;;4933061;29;20104;-40
2022/11/02 14:47:19;;;;;;;33.38;15.40;;;;;;;;;;4934485;29;20047;-40